createdAt,value
2019-01-21T00:00:34.295Z,99.90
2019-01-21T00:03:04.545Z,99.90
2019-01-21T00:05:32.139Z,99.80
2019-01-21T00:07:59.896Z,99.80
2019-01-21T00:10:27.503Z,99.90
2019-01-21T00:12:55.194Z,99.90
2019-01-21T00:15:22.982Z,99.90
2019-01-21T00:17:50.568Z,99.90
2019-01-21T00:20:18.172Z,99.90
2019-01-21T00:22:45.696Z,99.90
2019-01-21T00:25:13.278Z,99.90
2019-01-21T00:27:40.928Z,99.90
2019-01-21T00:30:08.419Z,99.90
2019-01-21T00:32:36.003Z,99.90
2019-01-21T00:35:04.087Z,99.90
2019-01-21T00:37:31.792Z,99.90
2019-01-21T00:39:59.383Z,99.90
2019-01-21T00:42:28.071Z,99.90
2019-01-21T00:44:55.856Z,99.90
2019-01-21T00:47:29.711Z,99.90
2019-01-21T00:49:52.850Z,99.90
2019-01-21T00:52:20.407Z,99.90
2019-01-21T00:54:47.756Z,99.90
2019-01-21T00:57:15.256Z,99.90
2019-01-21T00:59:42.860Z,99.90
2019-01-21T01:02:13.261Z,99.90
2019-01-21T01:04:40.886Z,99.90
2019-01-21T01:07:08.580Z,99.90
2019-01-21T01:09:36.001Z,99.90
2019-01-21T01:12:03.421Z,99.90
2019-01-21T01:14:30.851Z,99.90
2019-01-21T01:16:59.559Z,99.90
2019-01-21T01:19:26.843Z,99.90
2019-01-21T01:21:54.377Z,99.90
2019-01-21T01:24:21.892Z,99.90
2019-01-21T01:26:49.358Z,99.90
2019-01-21T01:29:16.783Z,99.90
2019-01-21T01:31:44.306Z,99.90
2019-01-21T01:34:11.772Z,99.90
2019-01-21T01:36:39.386Z,99.90
2019-01-21T01:39:06.888Z,99.90
2019-01-21T01:41:34.308Z,99.90
2019-01-21T01:44:01.871Z,99.90
2019-01-21T01:46:29.796Z,99.90
2019-01-21T01:48:58.032Z,99.90
2019-01-21T01:51:25.451Z,99.90
2019-01-21T01:53:52.892Z,99.90
2019-01-21T01:56:20.404Z,99.90
2019-01-21T01:58:47.977Z,99.90
2019-01-21T02:01:15.802Z,99.90
2019-01-21T02:03:43.574Z,99.90
2019-01-21T02:06:11.059Z,99.90
2019-01-21T02:08:38.487Z,99.90
2019-01-21T02:11:06.687Z,99.90
2019-01-21T02:13:35.384Z,99.90
2019-01-21T02:16:02.999Z,99.90
2019-01-21T02:18:30.734Z,99.90
2019-01-21T02:21:00.891Z,99.90
2019-01-21T02:23:34.168Z,99.90
2019-01-21T02:26:03.278Z,99.90
2019-01-21T02:28:48.305Z,99.90
2019-01-21T02:31:54.215Z,99.90
2019-01-21T02:35:06.167Z,99.90
2019-01-21T02:38:05.218Z,99.90
2019-01-21T02:40:48.672Z,99.90
2019-01-21T02:43:54.019Z,99.90
2019-01-21T02:46:53.283Z,99.80
2019-01-21T02:49:54.457Z,99.90
2019-01-21T02:52:50.856Z,99.80
2019-01-21T02:56:01.678Z,99.90
2019-01-21T02:58:42.419Z,99.80
2019-01-21T03:02:05.260Z,99.80
2019-01-21T03:05:09.668Z,99.80
2019-01-21T03:07:48.931Z,99.80
2019-01-21T03:10:47.833Z,99.80
2019-01-21T03:13:39.623Z,99.80
2019-01-21T03:16:32.892Z,99.80
2019-01-21T03:19:26.362Z,99.80
2019-01-21T03:22:49.471Z,99.90
2019-01-21T03:25:42.139Z,99.90
2019-01-21T03:29:06.788Z,99.80
2019-01-21T03:32:08.880Z,99.80
2019-01-21T03:35:18.233Z,99.80
2019-01-21T03:38:36.692Z,99.80
2019-01-21T03:41:46.670Z,99.80
2019-01-21T03:45:07.087Z,99.80
2019-01-21T03:47:39.886Z,99.80
2019-01-21T03:50:45.139Z,99.80
2019-01-21T03:54:03.035Z,99.90
2019-01-21T03:57:04.486Z,99.90
2019-01-21T03:59:57.495Z,99.80
2019-01-21T04:03:16.456Z,99.90
2019-01-21T04:06:42.798Z,99.80
2019-01-21T04:09:38.520Z,99.90
2019-01-21T04:12:44.884Z,99.90
2019-01-21T04:15:54.639Z,99.90
2019-01-21T04:18:55.638Z,99.80
2019-01-21T04:21:55.095Z,99.80
2019-01-21T04:25:16.570Z,99.80
2019-01-21T04:28:24.867Z,99.80
2019-01-21T04:31:32.777Z,99.90
2019-01-21T04:34:48.145Z,99.90
2019-01-21T04:37:39.824Z,99.90
2019-01-21T04:40:20.736Z,99.90
2019-01-21T04:43:29.141Z,99.90
2019-01-21T04:46:24.183Z,99.90
2019-01-21T04:49:26.666Z,99.90
2019-01-21T04:52:18.441Z,99.90
2019-01-21T04:55:23.806Z,99.90
2019-01-21T04:58:20.495Z,99.90
2019-01-21T05:01:37.911Z,99.90
2019-01-21T05:04:24.347Z,99.90
2019-01-21T05:07:28.006Z,99.90
2019-01-21T05:10:41.553Z,99.90
2019-01-21T05:13:45.747Z,99.90
2019-01-21T05:17:07.737Z,99.90
2019-01-21T05:20:21.408Z,99.90
2019-01-21T05:23:09.511Z,99.90
2019-01-21T05:26:25.122Z,99.90
2019-01-21T05:29:38.208Z,99.90
2019-01-21T05:32:30.726Z,99.90
2019-01-21T05:35:26.224Z,99.90
2019-01-21T05:38:53.412Z,99.90
2019-01-21T05:42:18.087Z,99.90
2019-01-21T05:45:00.354Z,99.90
2019-01-21T05:48:08.933Z,99.90
2019-01-21T05:51:24.304Z,99.90
2019-01-21T05:54:15.050Z,99.90
2019-01-21T05:57:16.196Z,99.90
2019-01-21T06:00:22.574Z,99.90
2019-01-21T06:03:27.557Z,99.90
2019-01-21T06:06:17.801Z,99.90
2019-01-21T06:09:05.750Z,99.90
2019-01-21T06:11:54.248Z,99.90
2019-01-21T06:14:51.859Z,99.90
2019-01-21T06:17:45.230Z,99.90
2019-01-21T06:20:51.840Z,99.90
2019-01-21T06:23:39.204Z,99.90
2019-01-21T06:26:51.774Z,99.90
2019-01-21T06:29:29.263Z,99.90
2019-01-21T06:32:21.673Z,99.90
2019-01-21T06:35:26.209Z,99.90
2019-01-21T06:38:32.279Z,99.90
2019-01-21T06:41:23.555Z,99.90
2019-01-21T06:44:19.559Z,99.90
2019-01-21T06:47:26.641Z,99.90
2019-01-21T06:50:08.875Z,99.90
2019-01-21T06:53:05.956Z,99.90
2019-01-21T06:56:08.489Z,99.90
2019-01-21T06:59:26.621Z,99.90
2019-01-21T07:02:35.292Z,99.90
2019-01-21T07:05:22.487Z,99.90
2019-01-21T07:08:27.947Z,99.90
2019-01-21T07:11:52.587Z,99.90
2019-01-21T07:15:03.907Z,99.90
2019-01-21T07:18:12.680Z,99.90
2019-01-21T07:20:51.795Z,99.90
2019-01-21T07:24:12.255Z,99.90
2019-01-21T07:27:20.345Z,99.90
2019-01-21T07:30:28.920Z,99.90
2019-01-21T07:33:32.870Z,99.90
2019-01-21T07:36:42.838Z,99.90
2019-01-21T07:39:41.280Z,99.90
2019-01-21T07:42:48.427Z,99.90
2019-01-21T07:46:00.979Z,99.90
2019-01-21T07:48:52.499Z,99.90
2019-01-21T07:52:04.695Z,99.90
2019-01-21T07:54:50.659Z,99.90
2019-01-21T07:57:51.824Z,99.90
2019-01-21T08:01:19.145Z,99.90
2019-01-21T08:04:21.810Z,99.90
2019-01-21T08:07:10.999Z,99.90
2019-01-21T08:10:12.741Z,99.90
2019-01-21T08:13:18.092Z,99.90
2019-01-21T08:16:24.962Z,99.90
2019-01-21T08:19:28.339Z,99.90
2019-01-21T08:22:23.154Z,99.90
2019-01-21T08:25:26.110Z,99.90
2019-01-21T08:28:21.184Z,99.90
2019-01-21T08:31:26.203Z,99.90
2019-01-21T08:34:25.367Z,99.90
2019-01-21T08:37:11.158Z,99.90
2019-01-21T08:40:17.671Z,99.90
2019-01-21T08:43:32.027Z,99.90
2019-01-21T08:46:35.314Z,99.90
2019-01-21T08:49:50.475Z,99.90
2019-01-21T08:53:03.178Z,99.90
2019-01-21T08:56:05.695Z,99.90
2019-01-21T08:59:29.587Z,99.90
2019-01-21T09:02:53.648Z,99.90
2019-01-21T09:06:05.499Z,99.90
2019-01-21T09:09:26.690Z,99.90
2019-01-21T09:12:29.951Z,99.90
2019-01-21T09:15:26.654Z,99.90
2019-01-21T09:18:17.591Z,99.90
2019-01-21T09:21:42.208Z,99.90
2019-01-21T09:24:44.152Z,99.90
2019-01-21T09:27:40.065Z,99.90
2019-01-21T09:30:27.294Z,99.90
2019-01-21T09:33:52.091Z,99.90
2019-01-21T09:36:41.516Z,99.90
2019-01-21T09:39:49.694Z,99.90
2019-01-21T09:42:39.043Z,99.90
2019-01-21T09:45:56.006Z,99.90
2019-01-21T09:48:22.492Z,99.90
2019-01-21T09:50:50.431Z,99.90
2019-01-21T09:53:18.108Z,99.90
2019-01-21T09:55:49.158Z,99.90
2019-01-21T09:58:21.928Z,99.90
2019-01-21T10:00:49.430Z,99.90
2019-01-21T10:03:17.515Z,99.90
2019-01-21T10:05:46.363Z,99.90
2019-01-21T10:08:47.983Z,99.90
2019-01-21T10:11:57.503Z,99.90
2019-01-21T10:14:42.228Z,99.90
2019-01-21T10:17:53.693Z,99.90
2019-01-21T10:21:06.626Z,99.90
2019-01-21T10:23:46.302Z,99.90
2019-01-21T10:26:57.794Z,99.90
2019-01-21T10:29:34.277Z,99.90
2019-01-21T10:32:21.555Z,99.90
2019-01-21T10:35:25.827Z,99.90
2019-01-21T10:38:45.288Z,99.90
2019-01-21T10:41:56.904Z,99.90
2019-01-21T10:44:58.935Z,99.90
2019-01-21T10:47:44.719Z,99.90
2019-01-21T10:50:27.829Z,99.90
2019-01-21T10:53:25.882Z,99.90
2019-01-21T10:56:37.051Z,99.90
2019-01-21T10:59:48.858Z,99.90
2019-01-21T11:02:47.535Z,99.90
2019-01-21T11:05:43.452Z,99.90
2019-01-21T11:08:40.469Z,99.80
2019-01-21T11:11:54.400Z,99.70
2019-01-21T11:14:48.192Z,99.70
2019-01-21T11:18:00.532Z,99.50
2019-01-21T11:20:50.288Z,99.50
2019-01-21T11:23:41.625Z,99.10
2019-01-21T11:26:35.681Z,98.90
2019-01-21T11:29:43.919Z,98.80
2019-01-21T11:32:52.756Z,98.80
2019-01-21T11:35:49.852Z,98.80
2019-01-21T11:38:43.897Z,98.70
2019-01-21T11:41:55.233Z,98.60
2019-01-21T11:44:48.203Z,98.40
2019-01-21T11:47:43.820Z,98.40
2019-01-21T11:50:59.166Z,98.20
2019-01-21T11:53:54.411Z,98.00
2019-01-21T11:56:39.418Z,98.00
2019-01-21T11:59:43.956Z,98.00
2019-01-21T12:02:26.958Z,97.90
2019-01-21T12:05:21.116Z,97.60
2019-01-21T12:08:12.250Z,97.80
2019-01-21T12:10:57.722Z,97.70
2019-01-21T12:14:18.080Z,97.60
2019-01-21T12:17:20.353Z,97.60
2019-01-21T12:20:19.748Z,97.60
2019-01-21T12:23:28.931Z,97.10
2019-01-21T12:26:05.453Z,97.00
2019-01-21T12:28:49.027Z,97.30
2019-01-21T12:31:48.716Z,96.90
2019-01-21T12:34:39.751Z,96.60
2019-01-21T12:37:33.589Z,96.10
2019-01-21T12:40:38.682Z,96.20
2019-01-21T12:43:43.655Z,96.70
2019-01-21T12:46:46.945Z,96.60
2019-01-21T12:50:02.434Z,96.40
2019-01-21T12:52:44.288Z,96.50
2019-01-21T12:55:38.122Z,96.50
2019-01-21T12:58:32.227Z,96.50
2019-01-21T13:01:41.443Z,96.50
2019-01-21T13:04:56.885Z,96.50
2019-01-21T13:07:52.272Z,96.50
2019-01-21T13:11:17.382Z,96.50
2019-01-21T13:14:29.180Z,96.40
2019-01-21T13:17:33.972Z,96.30
2019-01-21T13:20:55.570Z,96.30
2019-01-21T13:23:51.326Z,96.40
2019-01-21T13:26:47.923Z,96.50
2019-01-21T13:29:41.035Z,96.40
2019-01-21T13:32:56.648Z,96.50
2019-01-21T13:35:46.603Z,96.50
2019-01-21T13:39:09.994Z,96.40
2019-01-21T13:42:11.357Z,96.30
2019-01-21T13:45:16.978Z,96.20
2019-01-21T13:48:16.186Z,96.20
2019-01-21T13:50:56.069Z,96.10
2019-01-21T13:54:03.802Z,96.10
2019-01-21T13:57:09.747Z,96.10
2019-01-21T14:00:25.050Z,96.00
2019-01-21T14:03:29.351Z,95.80
2019-01-21T14:06:44.422Z,95.80
2019-01-21T14:09:34.736Z,95.70
2019-01-21T14:12:14.425Z,95.80
2019-01-21T14:15:09.865Z,95.90
2019-01-21T14:18:33.344Z,95.90
2019-01-21T14:21:50.297Z,95.90
2019-01-21T14:25:06.241Z,95.70
2019-01-21T14:28:02.583Z,95.80
2019-01-21T14:31:30.644Z,95.90
2019-01-21T14:34:18.601Z,95.80
2019-01-21T14:37:22.165Z,95.70
2019-01-21T14:40:03.503Z,95.70
2019-01-21T14:43:27.994Z,95.70
2019-01-21T14:46:40.825Z,95.80
2019-01-21T14:49:31.122Z,95.70
2019-01-21T14:52:52.193Z,95.70
2019-01-21T14:55:57.131Z,95.80
2019-01-21T14:58:55.278Z,95.70
2019-01-21T15:01:51.648Z,95.50
2019-01-21T15:04:49.398Z,95.60
2019-01-21T15:07:59.146Z,95.60
2019-01-21T15:11:12.135Z,95.60
2019-01-21T15:14:16.928Z,95.60
2019-01-21T15:17:17.689Z,95.60
2019-01-21T15:20:04.391Z,95.60
2019-01-21T15:23:26.142Z,95.50
2019-01-21T15:26:03.509Z,95.50
2019-01-21T15:29:02.579Z,95.50
2019-01-21T15:31:56.851Z,95.50
2019-01-21T15:34:56.861Z,95.40
2019-01-21T15:37:47.350Z,95.40
2019-01-21T15:41:05.627Z,95.50
2019-01-21T15:44:20.521Z,95.50
2019-01-21T15:48:00.521Z,95.50
2019-01-21T15:50:47.109Z,95.60
2019-01-21T15:53:34.807Z,95.70
2019-01-21T15:56:11.512Z,95.70
2019-01-21T15:59:13.343Z,95.70
2019-01-21T16:01:55.822Z,95.80
2019-01-21T16:05:16.812Z,95.70
2019-01-21T16:07:54.730Z,95.80
2019-01-21T16:11:00.902Z,95.80
2019-01-21T16:13:52.860Z,96.10
2019-01-21T16:16:45.056Z,95.50
2019-01-21T16:19:21.424Z,95.10
2019-01-21T16:22:33.426Z,95.50
2019-01-21T16:25:40.950Z,95.30
2019-01-21T16:28:20.723Z,95.20
2019-01-21T16:30:59.426Z,95.30
2019-01-21T16:34:12.782Z,95.30
2019-01-21T16:36:56.531Z,95.40
2019-01-21T16:40:04.813Z,95.40
2019-01-21T16:42:31.406Z,95.40
2019-01-21T16:44:58.887Z,95.30
2019-01-21T16:47:26.721Z,95.40
2019-01-21T16:49:54.473Z,95.40
2019-01-21T16:52:22.152Z,95.40
2019-01-21T16:54:49.478Z,95.50
2019-01-21T16:57:17.007Z,95.60
2019-01-21T16:59:44.502Z,95.50
2019-01-21T17:02:12.226Z,95.60
2019-01-21T17:04:39.728Z,95.60
2019-01-21T17:07:07.303Z,95.60
2019-01-21T17:09:34.967Z,95.70
2019-01-21T17:12:02.833Z,95.60
2019-01-21T17:14:30.319Z,95.60
2019-01-21T17:16:57.797Z,95.70
2019-01-21T17:19:25.205Z,95.70
2019-01-21T17:21:52.771Z,95.70
2019-01-21T17:24:20.374Z,95.80
2019-01-21T17:26:47.950Z,95.80
2019-01-21T17:29:15.449Z,95.80
2019-01-21T17:31:42.899Z,95.70
2019-01-21T17:34:10.341Z,95.70
2019-01-21T17:36:37.964Z,95.80
2019-01-21T17:39:07.486Z,95.80
2019-01-21T17:41:35.170Z,95.80
2019-01-21T17:44:03.013Z,95.80
2019-01-21T17:46:30.506Z,95.70
2019-01-21T17:48:58.539Z,95.80
2019-01-21T17:51:26.168Z,95.80
2019-01-21T17:53:53.614Z,95.80
2019-01-21T17:56:21.278Z,95.90
2019-01-21T17:58:48.906Z,95.90
2019-01-21T18:01:16.654Z,95.90
2019-01-21T18:03:47.127Z,95.90
2019-01-21T18:06:14.664Z,95.90
2019-01-21T18:08:42.767Z,96.00
2019-01-21T18:11:12.636Z,96.00
2019-01-21T18:13:40.250Z,95.80
2019-01-21T18:16:11.585Z,96.00
2019-01-21T18:18:40.119Z,96.00
2019-01-21T18:21:07.770Z,96.00
2019-01-21T18:23:35.257Z,96.00
2019-01-21T18:26:02.703Z,96.00
2019-01-21T18:28:30.239Z,96.00
2019-01-21T18:30:57.825Z,96.00
2019-01-21T18:33:26.670Z,96.10
2019-01-21T18:35:53.962Z,96.00
2019-01-21T18:38:21.590Z,96.10
2019-01-21T18:40:48.978Z,96.10
2019-01-21T18:43:16.458Z,96.20
2019-01-21T18:45:44.022Z,96.20
2019-01-21T18:48:11.429Z,96.20
2019-01-21T18:50:38.954Z,96.20
2019-01-21T18:53:06.375Z,96.20
2019-01-21T18:55:33.907Z,96.30
2019-01-21T18:58:01.271Z,96.20
2019-01-21T19:00:30.238Z,96.30
2019-01-21T19:02:57.834Z,96.30
2019-01-21T19:05:25.638Z,96.30
2019-01-21T19:07:53.791Z,96.30
2019-01-21T19:10:21.662Z,96.30
2019-01-21T19:12:49.961Z,96.30
2019-01-21T19:15:22.774Z,96.30
2019-01-21T19:17:50.403Z,96.30
2019-01-21T19:20:18.033Z,96.40
2019-01-21T19:22:45.675Z,96.40
2019-01-21T19:25:13.248Z,96.50
2019-01-21T19:27:41.038Z,96.50
2019-01-21T19:30:12.380Z,96.50
2019-01-21T19:32:39.665Z,96.50
2019-01-21T19:35:08.594Z,96.50
2019-01-21T19:37:36.203Z,96.60
2019-01-21T19:40:05.287Z,96.60
2019-01-21T19:42:32.908Z,96.60
2019-01-21T19:45:00.640Z,96.60
2019-01-21T19:47:28.417Z,96.90
2019-01-21T19:49:55.850Z,96.70
2019-01-21T19:52:23.305Z,96.70
2019-01-21T19:54:51.959Z,96.70
2019-01-21T19:57:22.811Z,96.70
2019-01-21T19:59:50.614Z,96.70
2019-01-21T20:02:18.030Z,96.60
2019-01-21T20:04:45.571Z,96.70
2019-01-21T20:07:12.988Z,96.70
2019-01-21T20:09:40.465Z,96.70
2019-01-21T20:12:07.855Z,96.70
2019-01-21T20:14:35.346Z,96.60
2019-01-21T20:17:02.953Z,96.70
2019-01-21T20:19:30.470Z,96.80
2019-01-21T20:21:57.962Z,96.80
2019-01-21T20:24:26.463Z,96.80
2019-01-21T20:26:53.860Z,96.90
2019-01-21T20:29:21.369Z,96.90
2019-01-21T20:31:48.766Z,96.90
2019-01-21T20:34:16.453Z,96.90
2019-01-21T20:36:43.927Z,96.90
2019-01-21T20:39:11.649Z,96.90
2019-01-21T20:41:39.293Z,97.00
2019-01-21T20:44:06.843Z,97.00
2019-01-21T20:46:34.558Z,97.00
2019-01-21T20:49:02.060Z,97.10
2019-01-21T20:51:29.621Z,97.10
2019-01-21T20:53:57.222Z,97.10
2019-01-21T20:56:24.719Z,97.20
2019-01-21T20:58:52.378Z,97.20
2019-01-21T21:01:19.912Z,97.20
2019-01-21T21:03:47.539Z,97.20
2019-01-21T21:06:15.135Z,97.20
2019-01-21T21:08:42.800Z,97.30
2019-01-21T21:11:10.390Z,97.30
2019-01-21T21:13:38.884Z,97.40
2019-01-21T21:16:06.508Z,97.40
2019-01-21T21:18:34.155Z,97.40
2019-01-21T21:21:01.873Z,97.40
2019-01-21T21:23:29.630Z,97.40
2019-01-21T21:25:57.266Z,97.40
2019-01-21T21:28:24.840Z,97.30
2019-01-21T21:30:52.554Z,97.50
2019-01-21T21:33:20.226Z,97.50
2019-01-21T21:35:47.914Z,97.50
2019-01-21T21:38:16.853Z,97.50
2019-01-21T21:40:44.917Z,97.50
2019-01-21T21:43:15.192Z,97.60
2019-01-21T21:45:43.022Z,97.60
2019-01-21T21:48:10.615Z,97.60
2019-01-21T21:50:38.244Z,97.60
2019-01-21T21:53:05.821Z,97.60
2019-01-21T21:55:33.551Z,97.60
2019-01-21T21:58:03.699Z,97.70
2019-01-21T22:00:31.336Z,97.70
2019-01-21T22:02:59.372Z,97.80
2019-01-21T22:05:27.233Z,97.80
2019-01-21T22:07:54.977Z,97.80
2019-01-21T22:10:27.407Z,97.80
2019-01-21T22:12:55.165Z,97.80
2019-01-21T22:15:24.825Z,97.80
2019-01-21T22:17:52.593Z,97.90
2019-01-21T22:20:21.616Z,97.90
2019-01-21T22:22:49.283Z,97.90
2019-01-21T22:25:17.657Z,97.90
2019-01-21T22:27:45.239Z,97.90
2019-01-21T22:30:15.069Z,98.00
2019-01-21T22:32:42.592Z,98.00
2019-01-21T22:35:13.671Z,98.00
2019-01-21T22:37:41.176Z,98.00
2019-01-21T22:40:11.340Z,98.00
2019-01-21T22:42:38.829Z,98.00
2019-01-21T22:45:09.059Z,98.10
2019-01-21T22:47:36.702Z,98.10
2019-01-21T22:50:05.359Z,98.10
2019-01-21T22:52:32.963Z,98.10
2019-01-21T22:55:00.556Z,98.10
2019-01-21T22:57:28.114Z,98.10
2019-01-21T22:59:55.766Z,98.20
2019-01-21T23:02:23.382Z,98.20
2019-01-21T23:04:50.790Z,98.20
2019-01-21T23:07:18.262Z,98.20
2019-01-21T23:09:45.881Z,98.20
2019-01-21T23:12:13.490Z,98.30
2019-01-21T23:14:41.159Z,98.30
2019-01-21T23:17:09.770Z,98.30
2019-01-21T23:19:37.263Z,98.30
2019-01-21T23:22:05.083Z,98.30
2019-01-21T23:24:32.460Z,98.30
2019-01-21T23:26:59.858Z,98.30
2019-01-21T23:29:27.214Z,98.30
2019-01-21T23:31:55.011Z,98.30
2019-01-21T23:34:22.613Z,98.30
2019-01-21T23:36:51.233Z,98.40
2019-01-21T23:39:20.192Z,98.40
2019-01-21T23:41:48.076Z,98.30
2019-01-21T23:44:15.629Z,98.40
2019-01-21T23:46:43.100Z,98.30
2019-01-21T23:49:10.653Z,98.40
2019-01-21T23:51:38.027Z,98.40
2019-01-21T23:54:05.830Z,98.30
2019-01-21T23:56:33.639Z,98.30
2019-01-21T23:59:01.294Z,98.30
